Larguia, Argentina
Current Conditions -  °F | °C
As of 5:00 PM on Sunday 23 Nov 2014 (Local Time) from SAAR Reporting Station
Clear Clear  
Wind Chill: 88°   Ceiling: Unl
Heat Index: 88°   Visibility: 6mi
Dew Point: 59°   Wind: 10mph
Humidity: 38%   Direction: 360°N
Pressure: 29.71"   Gusts: NA
Location:  32.54°S, 61.23°W
Report Text: SAAR 232000Z 36009KT CAVOK 31/15 Q1006
Loading
Personal Weather Stations






























Interactive Weather Map New forecast layout! Learn more

10-Day Weather Forecast

Advertisements
Track Severe Weather on mobile